createdAt,value
2023-01-09T00:00:56.631Z,0.90
2023-01-09T00:03:24.067Z,0.90
2023-01-09T00:05:51.346Z,0.90
2023-01-09T00:08:19.696Z,0.90
2023-01-09T00:10:50.158Z,0.90
2023-01-09T00:13:18.524Z,0.90
2023-01-09T00:15:45.964Z,0.90
2023-01-09T00:18:13.450Z,0.90
2023-01-09T00:20:40.872Z,0.80
2023-01-09T00:23:08.363Z,0.80
2023-01-09T00:25:36.118Z,0.80
2023-01-09T00:28:03.505Z,0.80
2023-01-09T00:30:31.080Z,0.90
2023-01-09T00:32:58.680Z,0.90
2023-01-09T00:35:28.466Z,0.90
2023-01-09T00:37:55.868Z,0.80
2023-01-09T00:40:23.732Z,0.80
2023-01-09T00:42:56.577Z,0.70
2023-01-09T00:45:29.683Z,0.70
2023-01-09T00:48:08.343Z,0.80
2023-01-09T00:50:37.021Z,0.90
2023-01-09T00:53:13.131Z,0.80
2023-01-09T00:55:40.857Z,0.80
2023-01-09T00:58:08.748Z,0.80
2023-01-09T01:00:36.181Z,0.80
2023-01-09T01:03:03.822Z,0.80
2023-01-09T01:05:49.711Z,0.80
2023-01-09T01:08:19.829Z,0.80
2023-01-09T01:10:48.679Z,0.80
2023-01-09T01:13:16.453Z,0.80
2023-01-09T01:15:45.755Z,0.80
2023-01-09T01:18:14.587Z,0.70
2023-01-09T01:20:43.682Z,0.70
2023-01-09T01:23:11.693Z,0.70
2023-01-09T01:25:43.027Z,0.70
2023-01-09T01:28:10.801Z,0.80
2023-01-09T01:30:40.667Z,0.80
2023-01-09T01:33:08.773Z,0.80
2023-01-09T01:35:36.534Z,0.70
2023-01-09T01:38:05.760Z,0.80
2023-01-09T01:40:34.780Z,0.80
2023-01-09T01:43:02.128Z,0.80
2023-01-09T01:45:31.092Z,0.80
2023-01-09T01:48:08.698Z,0.80
2023-01-09T01:50:51.549Z,0.80
2023-01-09T01:53:28.839Z,0.80
2023-01-09T01:56:11.440Z,0.80
2023-01-09T01:59:07.523Z,0.80
2023-01-09T02:01:36.818Z,0.90
2023-01-09T02:04:05.516Z,0.90
2023-01-09T02:06:34.838Z,0.90
2023-01-09T02:09:05.311Z,0.80
2023-01-09T02:11:33.256Z,0.80
2023-01-09T02:14:02.110Z,0.80
2023-01-09T02:16:38.102Z,0.80
2023-01-09T02:19:33.250Z,0.70
2023-01-09T02:22:30.936Z,0.80
2023-01-09T02:25:16.998Z,1.00
2023-01-09T02:27:59.093Z,1.10
2023-01-09T02:30:33.002Z,1.20
2023-01-09T02:33:08.289Z,1.10
2023-01-09T02:35:47.171Z,1.00
2023-01-09T02:38:43.495Z,1.00
2023-01-09T02:41:40.838Z,0.90
2023-01-09T02:44:23.789Z,0.90
2023-01-09T02:47:17.986Z,0.90
2023-01-09T02:49:52.202Z,0.90
2023-01-09T02:52:20.158Z,0.90
2023-01-09T02:55:08.625Z,0.80
2023-01-09T02:57:55.024Z,0.80
2023-01-09T03:00:28.414Z,0.80
2023-01-09T03:03:33.953Z,0.80
2023-01-09T03:06:09.699Z,0.90
2023-01-09T03:08:59.066Z,0.80
2023-01-09T03:11:29.289Z,0.80
2023-01-09T03:14:04.626Z,0.80
2023-01-09T03:16:37.871Z,0.90
2023-01-09T03:19:10.935Z,0.90
2023-01-09T03:21:39.175Z,0.80
2023-01-09T03:24:07.162Z,0.80
2023-01-09T03:26:34.729Z,0.80
2023-01-09T03:29:02.127Z,0.80
2023-01-09T03:31:29.684Z,0.80
2023-01-09T03:33:57.114Z,0.80
2023-01-09T03:36:26.229Z,0.80
2023-01-09T03:38:54.008Z,0.80
2023-01-09T03:41:21.298Z,0.80
2023-01-09T03:43:48.959Z,0.80
2023-01-09T03:46:17.548Z,0.70
2023-01-09T03:48:45.147Z,0.80
2023-01-09T03:51:12.906Z,0.80
2023-01-09T03:53:40.538Z,0.80
2023-01-09T03:56:08.712Z,0.70
2023-01-09T03:58:36.053Z,0.80
2023-01-09T04:01:05.406Z,1.10
2023-01-09T04:03:32.857Z,1.10
2023-01-09T04:06:00.230Z,1.10
2023-01-09T04:08:27.648Z,1.10
2023-01-09T04:10:54.927Z,1.10
2023-01-09T04:13:22.675Z,1.20
2023-01-09T04:15:50.179Z,1.30
2023-01-09T04:18:17.508Z,1.60
2023-01-09T04:20:48.105Z,1.90
2023-01-09T04:23:15.842Z,2.10
2023-01-09T04:25:43.303Z,2.30
2023-01-09T04:28:11.986Z,2.30
2023-01-09T04:30:39.646Z,2.40
2023-01-09T04:33:07.487Z,2.60
2023-01-09T04:35:35.193Z,2.90
2023-01-09T04:38:24.436Z,3.10
2023-01-09T04:40:56.406Z,3.40
2023-01-09T04:43:23.944Z,3.60
2023-01-09T04:45:51.255Z,3.60
2023-01-09T04:48:19.157Z,3.70
2023-01-09T04:50:46.635Z,3.80
2023-01-09T04:53:16.962Z,3.90
2023-01-09T04:55:44.700Z,4.00
2023-01-09T04:58:11.999Z,4.00
2023-01-09T05:00:39.847Z,4.20
2023-01-09T05:03:07.592Z,4.30
2023-01-09T05:05:36.645Z,4.40
2023-01-09T05:08:04.024Z,4.70
2023-01-09T05:10:32.176Z,4.70
2023-01-09T05:12:59.492Z,4.70
2023-01-09T05:15:32.784Z,4.70
2023-01-09T05:18:00.125Z,4.70
2023-01-09T05:20:27.691Z,4.70
2023-01-09T05:22:55.125Z,4.70
2023-01-09T05:25:22.424Z,4.80
2023-01-09T05:27:49.885Z,4.90
2023-01-09T05:30:18.453Z,5.10
2023-01-09T05:32:46.442Z,5.30
2023-01-09T05:35:13.889Z,5.50
2023-01-09T05:37:41.192Z,5.50
2023-01-09T05:40:09.697Z,5.60
2023-01-09T05:42:37.176Z,5.80
2023-01-09T05:45:05.788Z,6.00
2023-01-09T05:47:33.930Z,6.10
2023-01-09T05:50:01.351Z,6.20
2023-01-09T05:52:28.683Z,6.30
2023-01-09T05:54:56.047Z,6.50
2023-01-09T05:57:23.382Z,6.60
2023-01-09T05:59:51.371Z,6.60
2023-01-09T06:02:19.887Z,6.70
2023-01-09T06:04:47.628Z,6.70
2023-01-09T06:07:19.885Z,6.70
2023-01-09T06:09:49.085Z,6.70
2023-01-09T06:12:17.101Z,6.70
2023-01-09T06:14:44.513Z,6.60
2023-01-09T06:17:12.258Z,6.60
2023-01-09T06:19:39.515Z,6.60
2023-01-09T06:22:07.170Z,6.60
2023-01-09T06:24:34.964Z,6.70
2023-01-09T06:27:02.394Z,6.60
2023-01-09T06:29:29.780Z,6.60
2023-01-09T06:31:57.038Z,6.60
2023-01-09T06:34:24.551Z,6.60
2023-01-09T06:36:52.049Z,6.50
2023-01-09T06:39:19.395Z,6.50
2023-01-09T06:41:48.674Z,6.50
2023-01-09T06:44:16.259Z,6.50
2023-01-09T06:46:43.715Z,6.50
2023-01-09T06:49:11.265Z,6.50
2023-01-09T06:51:39.168Z,6.40
2023-01-09T06:54:06.749Z,6.40
2023-01-09T06:56:34.182Z,6.40
2023-01-09T06:59:02.321Z,6.40
2023-01-09T07:01:29.765Z,6.40
2023-01-09T07:03:57.301Z,6.40
2023-01-09T07:06:24.697Z,6.50
2023-01-09T07:08:52.359Z,6.60
2023-01-09T07:11:19.649Z,6.50
2023-01-09T07:13:47.204Z,6.60
2023-01-09T07:16:14.508Z,6.60
2023-01-09T07:18:41.803Z,6.60
2023-01-09T07:21:09.562Z,6.60
2023-01-09T07:23:37.057Z,6.70
2023-01-09T07:26:04.817Z,6.70
2023-01-09T07:28:32.515Z,6.70
2023-01-09T07:31:02.886Z,6.60
2023-01-09T07:33:30.522Z,6.70
2023-01-09T07:35:57.933Z,6.80
2023-01-09T07:38:25.546Z,6.80
2023-01-09T07:40:53.128Z,6.80
2023-01-09T07:43:20.548Z,6.90
2023-01-09T07:45:47.875Z,6.90
2023-01-09T07:48:18.937Z,6.80
2023-01-09T07:50:49.018Z,6.80
2023-01-09T07:53:16.735Z,6.90
2023-01-09T07:55:44.339Z,6.90
2023-01-09T07:58:14.497Z,7.00
2023-01-09T08:00:44.483Z,7.00
2023-01-09T08:03:12.760Z,7.00
2023-01-09T08:05:46.336Z,7.00
2023-01-09T08:08:16.072Z,7.00
2023-01-09T08:10:49.819Z,7.00
2023-01-09T08:13:18.302Z,7.00
2023-01-09T08:15:45.875Z,7.00
2023-01-09T08:18:16.581Z,7.00
2023-01-09T08:20:44.646Z,6.90
2023-01-09T08:23:11.988Z,7.00
2023-01-09T08:25:39.286Z,7.00
2023-01-09T08:28:07.388Z,7.10
2023-01-09T08:30:36.340Z,7.00
2023-01-09T08:33:04.686Z,7.00
2023-01-09T08:35:33.310Z,7.10
2023-01-09T08:38:02.618Z,7.20
2023-01-09T08:40:29.957Z,7.20
2023-01-09T08:43:15.626Z,7.30
2023-01-09T08:46:05.112Z,7.30
2023-01-09T08:48:32.679Z,7.30
2023-01-09T08:51:02.083Z,7.30
2023-01-09T08:53:34.099Z,7.30
2023-01-09T08:56:01.691Z,7.30
2023-01-09T08:58:30.346Z,7.30
2023-01-09T09:00:59.380Z,7.20
2023-01-09T09:03:26.758Z,7.30
2023-01-09T09:05:57.384Z,7.30
2023-01-09T09:08:24.935Z,7.20
2023-01-09T09:10:55.233Z,7.20
2023-01-09T09:13:23.673Z,7.20
2023-01-09T09:15:54.333Z,7.30
2023-01-09T09:18:24.453Z,7.30
2023-01-09T09:20:52.039Z,7.40
2023-01-09T09:23:21.900Z,7.40
2023-01-09T09:25:49.832Z,7.40
2023-01-09T09:28:20.336Z,7.40
2023-01-09T09:30:50.532Z,7.50
2023-01-09T09:33:24.107Z,7.60
2023-01-09T09:35:51.776Z,7.60
2023-01-09T09:38:19.830Z,7.70
2023-01-09T09:41:10.542Z,7.70
2023-01-09T09:44:26.371Z,7.70
2023-01-09T09:47:38.145Z,7.80
2023-01-09T09:50:45.147Z,7.80
2023-01-09T09:53:37.186Z,7.80
2023-01-09T09:56:06.419Z,7.80
2023-01-09T09:58:45.044Z,7.80
2023-01-09T10:01:19.008Z,7.80
2023-01-09T10:03:50.350Z,7.90
2023-01-09T10:06:38.803Z,7.90
2023-01-09T10:09:46.375Z,7.90
2023-01-09T10:12:50.710Z,8.00
2023-01-09T10:15:38.457Z,8.00
2023-01-09T10:18:42.657Z,8.00
2023-01-09T10:21:30.625Z,8.00
2023-01-09T10:24:10.682Z,8.00
2023-01-09T10:26:49.695Z,8.00
2023-01-09T10:29:50.834Z,8.10
2023-01-09T10:32:42.556Z,8.10
2023-01-09T10:35:48.089Z,8.10
2023-01-09T10:38:23.481Z,8.10
2023-01-09T10:41:06.600Z,8.10
2023-01-09T10:43:45.497Z,8.20
2023-01-09T10:46:37.707Z,8.20
2023-01-09T10:49:17.010Z,8.20
2023-01-09T10:52:08.016Z,8.20
2023-01-09T10:54:43.668Z,8.20
2023-01-09T10:57:18.608Z,8.20
2023-01-09T10:59:46.782Z,8.30
2023-01-09T11:02:35.317Z,8.30
2023-01-09T11:05:06.242Z,8.30
2023-01-09T11:07:41.418Z,8.30
2023-01-09T11:10:14.997Z,8.40
2023-01-09T11:12:43.963Z,8.40
2023-01-09T11:15:24.723Z,8.50
2023-01-09T11:17:52.685Z,8.50
2023-01-09T11:20:26.557Z,8.50
2023-01-09T11:23:03.664Z,8.50
2023-01-09T11:25:31.173Z,8.60
2023-01-09T11:28:05.666Z,8.60
2023-01-09T11:30:39.223Z,8.60
2023-01-09T11:33:30.566Z,8.60
2023-01-09T11:36:02.899Z,8.60
2023-01-09T11:38:36.343Z,8.60
2023-01-09T11:41:10.079Z,8.60
2023-01-09T11:43:41.507Z,8.60
2023-01-09T11:46:12.157Z,8.60
2023-01-09T11:48:59.772Z,8.60
2023-01-09T11:51:30.806Z,8.70
2023-01-09T11:54:18.082Z,8.70
2023-01-09T11:56:50.300Z,8.70
2023-01-09T11:59:20.689Z,8.70
2023-01-09T12:02:09.551Z,8.70
2023-01-09T12:04:47.732Z,8.70
2023-01-09T12:07:37.200Z,8.70
2023-01-09T12:10:14.099Z,8.70
2023-01-09T12:12:51.401Z,8.70
2023-01-09T12:15:40.966Z,8.60
2023-01-09T12:18:35.849Z,8.60
2023-01-09T12:21:37.108Z,8.60
2023-01-09T12:24:22.543Z,8.60
2023-01-09T12:27:20.910Z,8.70
2023-01-09T12:30:10.404Z,8.70
2023-01-09T12:32:40.711Z,8.70
2023-01-09T12:35:31.218Z,8.80
2023-01-09T12:38:47.213Z,8.90
2023-01-09T12:41:24.361Z,8.90
2023-01-09T12:43:58.472Z,8.90
2023-01-09T12:46:30.365Z,8.90
2023-01-09T12:49:25.730Z,8.80
2023-01-09T12:52:12.410Z,8.80
2023-01-09T12:55:09.862Z,8.90
2023-01-09T12:57:45.067Z,8.90
2023-01-09T13:00:23.811Z,8.80
2023-01-09T13:03:19.037Z,8.90
2023-01-09T13:05:50.263Z,8.80
2023-01-09T13:08:36.652Z,8.80
2023-01-09T13:11:32.060Z,8.70
2023-01-09T13:14:11.649Z,8.70
2023-01-09T13:16:45.143Z,8.70
2023-01-09T13:19:34.260Z,8.70
2023-01-09T13:22:04.857Z,8.70
2023-01-09T13:24:55.975Z,8.60
2023-01-09T13:27:26.231Z,8.60
2023-01-09T13:30:27.175Z,8.50
2023-01-09T13:33:06.270Z,8.50
2023-01-09T13:35:33.835Z,8.50
2023-01-09T13:38:02.381Z,8.50
2023-01-09T13:40:31.313Z,8.50
2023-01-09T13:43:05.650Z,8.40
2023-01-09T13:45:37.357Z,8.40
2023-01-09T13:48:20.217Z,8.40
2023-01-09T13:50:48.579Z,8.40
2023-01-09T13:53:18.741Z,8.30
2023-01-09T13:55:58.882Z,8.30
2023-01-09T13:58:40.566Z,8.40
2023-01-09T14:01:34.676Z,8.20
2023-01-09T14:04:35.994Z,8.20
2023-01-09T14:07:21.882Z,8.20
2023-01-09T14:09:59.110Z,8.20
2023-01-09T14:12:28.967Z,8.20
2023-01-09T14:15:02.256Z,8.20
2023-01-09T14:17:38.396Z,8.10
2023-01-09T14:20:23.143Z,8.10
2023-01-09T14:23:18.157Z,8.10
2023-01-09T14:25:45.674Z,8.10
2023-01-09T14:28:39.039Z,8.10
2023-01-09T14:31:08.507Z,8.00
2023-01-09T14:33:36.642Z,8.00
2023-01-09T14:36:25.568Z,7.90
2023-01-09T14:39:06.628Z,7.90
2023-01-09T14:42:04.627Z,7.90
2023-01-09T14:44:50.740Z,7.80
2023-01-09T14:47:39.557Z,7.80
2023-01-09T14:50:29.401Z,7.80
2023-01-09T14:53:21.476Z,7.80
2023-01-09T14:56:01.195Z,7.80
2023-01-09T14:58:33.313Z,7.70
2023-01-09T15:01:08.599Z,7.70
2023-01-09T15:03:56.270Z,7.70
2023-01-09T15:06:30.995Z,7.70
2023-01-09T15:09:30.083Z,7.60
2023-01-09T15:12:04.802Z,7.60
2023-01-09T15:14:40.935Z,7.50
2023-01-09T15:17:23.230Z,7.50
2023-01-09T15:19:50.733Z,7.50
2023-01-09T15:22:33.923Z,7.50
2023-01-09T15:25:38.260Z,7.50
2023-01-09T15:28:22.869Z,7.40
2023-01-09T15:30:57.313Z,7.50
2023-01-09T15:33:25.472Z,7.50
2023-01-09T15:35:58.737Z,7.50
2023-01-09T15:38:27.693Z,7.40
2023-01-09T15:41:36.581Z,7.40
2023-01-09T15:44:06.300Z,7.40
2023-01-09T15:46:34.494Z,7.40
2023-01-09T15:49:01.971Z,7.40
2023-01-09T15:51:29.711Z,7.40
2023-01-09T15:53:59.018Z,7.50
2023-01-09T15:56:30.927Z,7.40
2023-01-09T15:59:01.882Z,7.40
2023-01-09T16:01:38.496Z,7.50
2023-01-09T16:04:06.142Z,7.50
2023-01-09T16:06:36.395Z,7.40
2023-01-09T16:09:06.042Z,7.40
2023-01-09T16:11:39.205Z,7.40
2023-01-09T16:14:23.072Z,7.40
2023-01-09T16:16:52.690Z,7.40
2023-01-09T16:19:33.717Z,7.50
2023-01-09T16:22:04.124Z,7.50
2023-01-09T16:24:42.717Z,7.40
2023-01-09T16:27:34.748Z,7.40
2023-01-09T16:30:05.134Z,7.40
2023-01-09T16:32:35.081Z,7.40
2023-01-09T16:35:15.053Z,7.30
2023-01-09T16:37:42.867Z,7.30
2023-01-09T16:40:17.248Z,7.30
2023-01-09T16:43:02.268Z,7.30
2023-01-09T16:45:38.670Z,7.40
2023-01-09T16:48:17.509Z,7.40
2023-01-09T16:50:51.981Z,7.40
2023-01-09T16:53:48.729Z,7.30
2023-01-09T16:56:25.411Z,7.30
2023-01-09T16:58:56.403Z,7.20
2023-01-09T17:01:24.104Z,7.30
2023-01-09T17:03:52.948Z,7.30
2023-01-09T17:06:32.033Z,7.30
2023-01-09T17:08:59.751Z,7.20
2023-01-09T17:11:32.271Z,7.30
2023-01-09T17:14:04.240Z,7.20
2023-01-09T17:16:33.890Z,7.20
2023-01-09T17:19:01.153Z,7.20
2023-01-09T17:21:29.393Z,7.10
2023-01-09T17:24:16.390Z,7.10
2023-01-09T17:27:05.445Z,7.10
2023-01-09T17:29:34.852Z,7.10
2023-01-09T17:32:02.334Z,7.00
2023-01-09T17:34:29.938Z,7.00
2023-01-09T17:36:58.823Z,7.00
2023-01-09T17:39:26.526Z,7.00
2023-01-09T17:41:53.984Z,6.90
2023-01-09T17:44:21.305Z,6.90
2023-01-09T17:46:48.645Z,6.90
2023-01-09T17:49:18.393Z,6.90
2023-01-09T17:51:46.317Z,6.80
2023-01-09T17:54:14.191Z,6.80
2023-01-09T17:56:45.332Z,6.80
2023-01-09T17:59:14.289Z,6.80
2023-01-09T18:01:48.386Z,6.80
2023-01-09T18:04:19.654Z,6.80
2023-01-09T18:06:53.753Z,6.80
2023-01-09T18:09:27.520Z,6.80
2023-01-09T18:11:55.370Z,6.80
2023-01-09T18:14:25.353Z,6.70
2023-01-09T18:16:53.578Z,6.70
2023-01-09T18:19:22.436Z,6.80
2023-01-09T18:21:49.717Z,6.80
2023-01-09T18:24:20.338Z,6.70
2023-01-09T18:26:48.001Z,6.60
2023-01-09T18:29:15.781Z,6.50
2023-01-09T18:31:46.813Z,6.50
2023-01-09T18:34:14.264Z,6.40
2023-01-09T18:36:53.667Z,6.40
2023-01-09T18:39:23.036Z,6.40
2023-01-09T18:41:50.845Z,6.40
2023-01-09T18:44:25.276Z,6.40
2023-01-09T18:46:58.815Z,6.40
2023-01-09T18:49:26.253Z,6.40
2023-01-09T18:51:54.296Z,6.40
2023-01-09T18:54:22.890Z,6.40
2023-01-09T18:56:50.164Z,6.40
2023-01-09T18:59:34.543Z,6.40
2023-01-09T19:02:02.399Z,6.40
2023-01-09T19:04:30.233Z,6.50
2023-01-09T19:07:00.180Z,6.50
2023-01-09T19:09:27.632Z,6.40
2023-01-09T19:11:55.660Z,6.40
2023-01-09T19:14:23.368Z,6.20
2023-01-09T19:16:51.055Z,6.20
2023-01-09T19:19:19.003Z,6.20
2023-01-09T19:21:46.840Z,6.30
2023-01-09T19:24:14.636Z,6.40
2023-01-09T19:26:42.910Z,6.50
2023-01-09T19:29:11.817Z,6.40
2023-01-09T19:31:39.365Z,6.30
2023-01-09T19:34:06.774Z,6.30
2023-01-09T19:36:34.234Z,6.40
2023-01-09T19:39:03.881Z,6.40
2023-01-09T19:41:31.330Z,6.40
2023-01-09T19:44:01.817Z,6.30
2023-01-09T19:46:30.829Z,6.20
2023-01-09T19:48:59.265Z,6.10
2023-01-09T19:51:28.846Z,6.00
2023-01-09T19:56:35.045Z,6.00
2023-01-09T19:59:04.525Z,6.00
2023-01-09T20:01:36.420Z,6.00
2023-01-09T20:04:10.266Z,5.90
2023-01-09T20:06:43.943Z,5.80
2023-01-09T20:09:13.470Z,5.90
2023-01-09T20:11:41.981Z,6.00
2023-01-09T20:14:13.896Z,6.00
2023-01-09T20:16:41.955Z,6.00
2023-01-09T20:19:12.569Z,6.00
2023-01-09T20:21:40.307Z,6.00
2023-01-09T20:24:09.017Z,6.00
2023-01-09T20:26:37.766Z,6.00
2023-01-09T20:29:10.112Z,6.10
2023-01-09T20:31:37.924Z,6.00
2023-01-09T20:34:05.542Z,6.00
2023-01-09T20:36:36.055Z,5.90
2023-01-09T20:39:06.461Z,5.80
2023-01-09T20:41:34.513Z,5.80
2023-01-09T20:44:05.329Z,5.70
2023-01-09T20:46:38.693Z,5.60
2023-01-09T20:49:08.477Z,5.70
2023-01-09T20:51:37.185Z,5.70
2023-01-09T20:54:06.042Z,5.60
2023-01-09T20:56:34.244Z,5.60
2023-01-09T20:59:02.152Z,5.60
2023-01-09T21:01:29.660Z,5.50
2023-01-09T21:03:57.849Z,5.50
2023-01-09T21:06:28.897Z,5.50
2023-01-09T21:08:56.340Z,5.50
2023-01-09T21:11:24.360Z,5.40
2023-01-09T21:13:52.245Z,5.40
2023-01-09T21:16:24.448Z,5.50
2023-01-09T21:18:53.972Z,5.70
2023-01-09T21:21:24.676Z,5.70
2023-01-09T21:23:58.002Z,5.60
2023-01-09T21:26:28.878Z,5.60
2023-01-09T21:28:58.279Z,5.60
2023-01-09T21:31:33.860Z,5.60
2023-01-09T21:34:04.769Z,5.70
2023-01-09T21:36:32.848Z,5.70
2023-01-09T21:39:00.943Z,5.70
2023-01-09T21:41:46.770Z,5.60
2023-01-09T21:44:33.095Z,5.60
2023-01-09T21:47:02.193Z,5.50
2023-01-09T21:49:31.595Z,5.60
2023-01-09T21:51:59.070Z,5.60
2023-01-09T21:54:26.511Z,5.70
2023-01-09T21:56:55.113Z,5.80
2023-01-09T21:59:23.778Z,5.70
2023-01-09T22:01:51.835Z,5.60
2023-01-09T22:04:21.572Z,5.60
2023-01-09T22:06:49.426Z,5.60
2023-01-09T22:09:16.781Z,5.60
2023-01-09T22:11:45.532Z,5.60
2023-01-09T22:14:18.331Z,5.60
2023-01-09T22:16:46.605Z,5.60
2023-01-09T22:19:15.068Z,5.70
2023-01-09T22:21:42.407Z,5.70
2023-01-09T22:24:14.146Z,5.70
2023-01-09T22:26:41.642Z,5.60
2023-01-09T22:29:09.070Z,5.50
2023-01-09T22:31:40.061Z,5.50
2023-01-09T22:34:08.090Z,5.60
2023-01-09T22:36:35.492Z,5.60
2023-01-09T22:39:03.070Z,5.50
2023-01-09T22:41:30.852Z,5.50
2023-01-09T22:43:58.873Z,5.50
2023-01-09T22:46:26.492Z,5.50
2023-01-09T22:48:54.204Z,5.60
2023-01-09T22:51:21.985Z,5.60
2023-01-09T22:53:50.703Z,5.70
2023-01-09T22:56:22.950Z,5.70
2023-01-09T22:58:52.860Z,5.60
2023-01-09T23:01:21.100Z,5.60
2023-01-09T23:03:49.244Z,5.60
2023-01-09T23:06:19.398Z,5.60
2023-01-09T23:08:47.453Z,5.60
2023-01-09T23:11:38.697Z,5.50
2023-01-09T23:14:06.555Z,5.50
2023-01-09T23:16:33.997Z,5.50
2023-01-09T23:19:01.772Z,5.50
2023-01-09T23:21:29.237Z,5.40
2023-01-09T23:23:56.631Z,5.40
2023-01-09T23:26:23.956Z,5.50
2023-01-09T23:28:51.305Z,5.50
2023-01-09T23:31:19.203Z,5.50
2023-01-09T23:33:46.626Z,5.50
2023-01-09T23:36:14.205Z,5.60
2023-01-09T23:38:41.949Z,5.50
2023-01-09T23:41:09.428Z,5.50
2023-01-09T23:43:36.729Z,5.50
2023-01-09T23:46:04.150Z,5.50
2023-01-09T23:48:31.473Z,5.50
2023-01-09T23:50:58.792Z,5.50
2023-01-09T23:53:26.177Z,5.50
2023-01-09T23:55:57.099Z,5.60
2023-01-09T23:58:24.706Z,5.60
